Terminal Aerodrome Forecast
Issued by NWS

Home | Current Version | Previous Version | Text Only | Print | Product List | Glossary On
Versions: 1 2 3 4 5 6 7 8 9 10 11 12 13 14 15
067
FTUS45 KABQ 201120
TAFLVS
TAF
KLVS 201120Z 2012/2112 19011KT P6SM BKN120
     FM201930 20011G21KT P6SM VCTS SCT060 BKN090CB
     FM202200 VRB20G30KT 5SM -TSRA SCT030 BKN060CB
     FM210200 28009KT 6SM -SHRA SCT030 BKN060
     FM210600 VRB05KT 6SM -SHRA BKN015 OVC030=

USA.gov is the U.S. government's official web portal to all federal, state and local government web resources and services.